Time;durP1;ratioP1;P1;durP2;ratioP2;P2;SDS_P1;SDS_P2;PMS_P1;PMS_P2;Temp;Humidity;BMP_temperature;BMP_pressure;BME280_temperature;BME280_humidity;BME280_pressure;Samples;Min_cycle;Max_cycle;Signal;HPM_P1;HPM_P2
2022/09/15 18:57:08;;;;;;;7.22;1.67;;;13.50;99.90;;;-144.05;69.43;125687.94;4770341;30;20059;-84
2022/09/15 18:59:34;;;;;;;7.55;1.45;;;13.60;99.90;;;-144.05;68.93;125687.94;4766575;30;20047;-86
2022/09/15 19:02:07;;;;;;;4.07;1.35;;;13.60;99.90;;;-144.05;68.87;125687.94;4788957;30;20397;-86
2022/09/15 19:05:27;;;;;;;5.40;1.23;;;13.70;99.90;;;-144.05;68.89;125687.94;4788931;30;20058;-85
2022/09/15 19:08:47;;;;;;;;;;;;;;;;;;;;;
2022/09/15 19:11:13;;;;;;;6.18;1.98;;;13.70;99.90;;;-144.05;70.59;125687.94;4757277;29;20207;-83
2022/09/15 19:13:52;;;;;;;;;;;;;;;;;;;;;
2022/09/15 19:26:12;;;;;;;;;;;;;;;;;;;;;
2022/09/15 19:45:46;;;;;;;5.43;2.00;;;13.10;99.90;;;-144.05;73.28;125687.94;4798763;29;20038;-88
2022/09/15 19:48:16;;;;;;;2.78;1.00;;;13.10;99.90;;;-144.05;73.67;125687.94;4777514;29;20119;-84
2022/09/15 19:50:42;;;;;;;3.60;0.90;;;13.10;99.90;;;-144.05;74.14;125687.94;4805936;29;20518;-83
2022/09/15 19:53:08;;;;;;;3.92;1.00;;;13.10;99.90;;;-144.05;74.84;125687.94;4823129;29;20031;-82
2022/09/15 19:55:34;;;;;;;3.88;1.00;;;13.10;99.90;;;-144.05;73.98;125687.94;4805056;29;20042;-85
2022/09/15 19:58:13;;;;;;;4.20;1.92;;;13.20;99.90;;;-144.05;74.21;125687.94;4811566;29;20453;-84
2022/09/15 20:00:41;;;;;;;5.35;1.33;;;13.10;99.90;;;-144.05;73.42;125687.94;4827128;29;20023;-80
2022/09/15 20:03:07;;;;;;;2.90;1.40;;;13.20;99.90;;;-144.05;73.30;125687.94;4809709;29;20042;-85
2022/09/15 20:05:33;;;;;;;4.75;1.23;;;13.20;99.90;;;-144.05;73.16;125687.94;4805891;29;20450;-86
2022/09/15 20:08:02;;;;;;;4.00;1.23;;;13.30;99.90;;;-144.05;72.95;125687.94;4807523;29;20083;-86
2022/09/15 20:10:28;;;;;;;4.07;1.20;;;13.20;99.90;;;-144.05;72.85;125687.94;4807056;29;20121;-85
2022/09/15 20:12:54;;;;;;;6.18;1.52;;;13.30;99.90;;;-144.05;72.90;125687.94;4806752;29;20097;-86
2022/09/15 20:15:20;;;;;;;6.65;1.40;;;13.30;99.90;;;-144.05;72.60;125687.94;4810365;29;20035;-86
2022/09/15 20:17:46;;;;;;;6.38;1.70;;;13.30;99.90;;;-144.05;72.37;125687.94;4809376;29;20089;-86
2022/09/15 20:20:15;;;;;;;5.15;1.00;;;13.30;99.90;;;-144.05;71.72;125687.94;4825510;29;20035;-85
2022/09/15 20:22:41;;;;;;;5.97;1.02;;;13.30;99.90;;;-144.05;71.40;125687.94;4810296;29;20041;-86
2022/09/15 20:25:07;;;;;;;5.63;0.95;;;13.40;99.90;;;-144.05;70.91;125687.94;4776967;29;20046;-85
2022/09/15 20:27:33;;;;;;;3.90;1.42;;;13.30;99.90;;;-144.05;71.52;125687.94;4810207;29;20030;-89
2022/09/15 20:29:59;;;;;;;4.20;1.40;;;13.30;99.90;;;-144.05;71.84;125687.94;4808913;29;20041;-88
2022/09/15 20:32:36;;;;;;;3.28;0.90;;;13.20;99.90;;;-144.05;72.37;125687.94;4809513;29;20031;-85
2022/09/15 20:35:05;;;;;;;5.10;0.93;;;13.10;99.90;;;-144.05;72.31;125687.94;4810653;29;20039;-85
2022/09/15 20:37:31;;;;;;;3.53;1.35;;;13.10;99.90;;;-144.05;72.78;125687.94;4810558;29;20041;-86
2022/09/15 20:39:58;;;;;;;3.17;1.33;;;13.00;99.90;;;-144.05;72.91;125687.94;4809096;29;20038;-86
2022/09/15 20:42:30;;;;;;;3.30;1.05;;;13.10;99.90;;;-144.05;72.99;125687.94;4808969;29;20064;-86
2022/09/15 20:45:02;;;;;;;4.03;1.10;;;13.10;99.90;;;-144.05;72.56;125687.94;4809012;29;20479;-88
2022/09/15 20:47:35;;;;;;;3.92;0.88;;;13.00;99.90;;;-144.05;72.51;125687.94;4810726;29;20518;-86
2022/09/15 20:50:22;;;;;;;1.30;0.40;;;13.00;99.90;;;-144.05;72.61;125687.94;4809852;29;20035;-88
2022/09/15 20:53:12;;;;;;;1.50;0.80;;;13.00;99.90;;;-144.05;72.80;125687.94;4808206;29;20030;-89
2022/09/15 20:55:52;;;;;;;6.55;1.25;;;13.00;99.90;;;-144.05;72.75;125687.94;4807196;29;20053;-88
2022/09/15 20:58:22;;;;;;;4.75;1.45;;;13.00;99.90;;;-144.05;72.90;125687.94;4805084;29;20111;-84
2022/09/15 21:01:18;;;;;;;3.78;1.17;;;13.00;99.90;;;-144.05;72.97;125687.94;4806290;29;20038;-88
2022/09/15 21:04:08;;;;;;;3.08;1.30;;;13.00;99.90;;;-144.05;72.62;125687.94;4807796;29;20262;-88
2022/09/15 21:06:38;;;;;;;4.97;0.98;;;13.00;99.90;;;-144.05;72.49;125687.94;4793613;29;20452;-88
2022/09/15 21:09:34;;;;;;;2.92;1.08;;;13.00;99.90;;;-144.05;72.93;125687.94;4806071;29;20038;-87
2022/09/15 21:12:09;;;;;;;5.00;0.80;;;13.00;99.90;;;-144.05;73.52;125687.94;4821917;29;20042;-89
2022/09/15 21:14:45;;;;;;;3.05;0.73;;;13.00;99.90;;;-144.05;73.52;125687.94;4806914;29;20041;-87
2022/09/15 21:17:24;;;;;;;3.75;0.70;;;13.00;99.90;;;-144.05;73.17;125687.94;4808339;29;20050;-89
2022/09/15 21:20:35;;;;;;;4.68;0.77;;;13.00;99.90;;;-144.05;73.15;125687.94;4807181;29;20035;-87
2022/09/15 21:23:09;;;;;;;5.45;0.80;;;13.10;99.90;;;-144.05;72.56;125687.94;4809341;29;20053;-85
2022/09/15 21:25:39;;;;;;;2.88;0.90;;;13.00;99.90;;;-144.05;72.51;125687.94;4807244;29;20031;-88
2022/09/15 21:28:07;;;;;;;3.58;0.80;;;13.10;99.90;;;-144.05;72.36;125687.94;4807107;29;20038;-87
2022/09/15 21:30:36;;;;;;;2.28;0.80;;;13.10;99.90;;;-144.05;72.91;125687.94;4806162;29;20038;-88
2022/09/15 21:33:07;;;;;;;4.45;1.00;;;13.10;99.90;;;-144.05;72.95;125687.94;4807039;29;20069;-88
2022/09/15 21:35:33;;;;;;;3.90;1.35;;;13.00;99.90;;;-144.05;72.93;125687.94;4806784;29;20508;-86
2022/09/15 21:39:01;;;;;;;3.22;0.57;;;13.00;99.90;;;-144.05;73.30;125687.94;4791002;29;20045;-86
2022/09/15 21:42:34;;;;;;;;;;;;;;;;;;;;;
2022/09/15 21:45:45;;;;;;;5.38;0.93;;;12.80;99.90;;;-144.05;73.87;125687.94;4813127;29;20122;-89
2022/09/15 21:49:39;;;;;;;4.55;0.80;;;12.70;99.90;;;-144.05;74.47;125687.94;4810154;29;20072;-86
2022/09/15 21:52:35;;;;;;;3.90;1.13;;;12.70;99.90;;;-144.05;74.49;125687.94;4810255;29;20043;-86
2022/09/15 21:55:10;;;;;;;2.85;0.90;;;12.70;99.90;;;-144.05;74.54;125687.94;4810246;29;20043;-86
2022/09/15 21:57:36;;;;;;;5.40;1.20;;;12.70;99.90;;;-144.05;74.71;125687.94;4808964;29;20038;-87
2022/09/15 22:00:09;;;;;;;3.95;1.20;;;12.70;99.90;;;-144.05;74.73;125687.94;4807592;29;20034;-84
2022/09/15 22:02:35;;;;;;;1.67;0.77;;;12.70;99.90;;;-144.05;74.41;125687.94;4806673;29;20046;-87
2022/09/15 22:05:05;;;;;;;4.97;1.13;;;12.70;99.90;;;-144.05;74.41;125687.94;4805800;29;20488;-86
2022/09/15 22:07:31;;;;;;;3.03;1.10;;;12.70;99.90;;;-144.05;74.53;125687.94;4815015;29;20057;-82
2022/09/15 22:10:02;;;;;;;1.70;0.80;;;12.80;99.90;;;-144.05;74.20;125687.94;4828773;29;20043;-85
2022/09/15 22:12:29;;;;;;;3.10;0.80;;;12.80;99.90;;;-144.05;73.73;125687.94;4807304;29;20059;-87
2022/09/15 22:14:57;;;;;;;5.68;1.08;;;12.80;99.90;;;-144.05;73.70;125687.94;4807199;29;20097;-88
2022/09/15 22:17:34;;;;;;;2.65;1.02;;;12.80;99.90;;;-144.05;73.61;125687.94;4807363;29;20031;-87
2022/09/15 22:20:08;;;;;;;3.70;0.75;;;12.80;99.90;;;-144.05;73.46;125687.94;4807131;29;20032;-88
2022/09/15 22:22:34;;;;;;;2.80;1.00;;;12.90;99.90;;;-144.05;73.45;125687.94;4798107;24;20048;-85
2022/09/15 22:25:00;;;;;;;2.78;0.63;;;12.90;99.90;;;-144.05;73.41;125687.94;4775594;30;20472;-88
2022/09/15 22:27:26;;;;;;;2.65;1.00;;;12.90;99.90;;;-144.05;73.33;125687.94;4775658;30;20056;-87
2022/09/15 22:29:52;;;;;;;3.08;0.90;;;12.90;99.90;;;-144.05;73.61;125687.94;4777459;30;20035;-84
2022/09/15 22:32:17;;;;;;;3.45;0.82;;;12.90;99.90;;;-144.05;73.43;125687.94;4775800;30;20459;-83
2022/09/15 22:34:44;;;;;;;4.57;1.02;;;12.90;99.90;;;-144.05;73.27;125687.94;4815018;24;20051;-81
2022/09/15 22:37:10;;;;;;;4.95;1.30;;;12.90;99.90;;;-144.05;73.30;125687.94;4804221;29;20031;-81
2022/09/15 22:39:36;;;;;;;4.78;1.05;;;12.90;99.90;;;-144.05;74.04;125687.94;4806178;29;20049;-80
2022/09/15 22:42:02;;;;;;;3.90;1.25;;;12.90;99.90;;;-144.05;74.31;125687.94;4806323;29;20117;-81
2022/09/15 22:44:28;;;;;;;4.88;0.95;;;12.90;99.90;;;-144.05;74.41;125687.94;4805664;29;20035;-83
2022/09/15 22:46:55;;;;;;;4.85;1.13;;;12.90;99.90;;;-144.05;74.80;125687.94;4806093;29;20034;-82
2022/09/15 22:49:21;;;;;;;3.70;1.23;;;12.90;99.90;;;-144.05;74.59;125687.94;4805512;29;20042;-81
2022/09/15 22:51:47;;;;;;;5.15;1.70;;;12.90;99.90;;;-144.05;74.58;125687.94;4805208;29;20551;-81
2022/09/15 22:54:13;;;;;;;5.70;1.40;;;12.90;99.90;;;-144.05;74.93;125687.94;4804071;29;20087;-81
2022/09/15 22:56:39;;;;;;;3.47;1.40;;;12.80;99.90;;;-144.05;74.53;125687.94;4806045;29;20390;-82
2022/09/15 22:59:05;;;;;;;7.10;1.73;;;12.80;99.90;;;-144.05;75.00;125687.94;4805643;29;20031;-81
2022/09/15 23:01:30;;;;;;;4.00;1.33;;;12.80;99.90;;;-144.05;74.59;125687.94;4805373;29;20039;-81
2022/09/15 23:04:00;;;;;;;4.90;1.35;;;12.80;99.90;;;-144.05;74.52;125687.94;4804676;29;20034;-82
2022/09/15 23:06:32;;;;;;;3.40;1.10;;;12.80;99.90;;;-144.05;74.61;125687.94;4805567;29;20070;-82
2022/09/15 23:09:05;;;;;;;11.43;1.90;;;12.80;99.90;;;-144.05;74.79;125687.94;4805754;29;20131;-82
2022/09/15 23:11:32;;;;;;;3.53;1.38;;;12.80;99.90;;;-144.05;73.93;125687.94;4805291;29;20031;-80
2022/09/15 23:13:59;;;;;;;6.53;1.00;;;12.80;99.90;;;-144.05;74.02;125687.94;4805184;29;20113;-83
2022/09/15 23:16:26;;;;;;;6.95;1.33;;;12.80;99.90;;;-144.05;73.93;125687.94;4805492;29;20027;-81
2022/09/15 23:18:53;;;;;;;2.80;1.20;;;12.80;99.90;;;-144.05;73.34;125687.94;4805309;29;20046;-82
2022/09/15 23:21:20;;;;;;;4.15;1.27;;;12.80;99.90;;;-144.05;73.12;125687.94;4805493;29;20034;-81
2022/09/15 23:23:48;;;;;;;2.05;0.95;;;12.80;99.90;;;-144.05;73.21;125687.94;4804442;29;20038;-82
2022/09/15 23:26:19;;;;;;;8.27;1.42;;;12.80;99.90;;;-144.05;72.46;125687.94;4805221;29;20062;-82
2022/09/15 23:28:45;;;;;;;2.47;1.13;;;12.70;99.90;;;-144.05;72.88;125687.94;4805211;29;20410;-82
2022/09/15 23:31:12;;;;;;;3.58;1.10;;;12.70;99.90;;;-144.05;72.53;125687.94;4807311;29;20035;-83
2022/09/15 23:33:39;;;;;;;6.03;1.25;;;12.60;99.90;;;-144.05;72.63;125687.94;4805541;29;20455;-83
2022/09/15 23:36:11;;;;;;;7.20;1.15;;;12.60;99.90;;;-144.05;72.12;125687.94;4803681;29;20077;-83
2022/09/15 23:38:40;;;;;;;3.92;1.48;;;12.60;99.90;;;-144.05;72.23;125687.94;4805389;29;20052;-81
2022/09/15 23:41:09;;;;;;;3.67;0.90;;;12.60;99.90;;;-144.05;72.77;125687.94;4805215;29;20038;-83
2022/09/15 23:43:35;;;;;;;3.22;1.20;;;12.50;99.90;;;-144.05;73.15;125687.94;4805179;29;20049;-79
2022/09/15 23:46:02;;;;;;;2.90;1.63;;;12.40;99.90;;;-144.05;73.48;125687.94;4805122;29;20039;-81
2022/09/15 23:48:32;;;;;;;3.03;1.00;;;12.40;99.90;;;-144.05;73.55;125687.94;4806962;29;20405;-81
2022/09/15 23:50:58;;;;;;;2.97;1.40;;;12.40;99.90;;;-144.05;73.60;125687.94;4808648;29;20063;-82
2022/09/15 23:53:24;;;;;;;7.03;1.83;;;12.30;99.90;;;-144.05;73.87;125687.94;4807270;29;20543;-82
2022/09/15 23:55:50;;;;;;;5.60;1.30;;;12.40;99.90;;;-144.05;73.65;125687.94;4808491;29;20066;-83
2022/09/15 23:58:17;;;;;;;6.63;1.02;;;12.30;99.90;;;-144.05;74.09;125687.94;4808515;29;20110;-81
